Everton, Arkansas
Current Conditions -  °F | °C
As of 2:26 AM on Tuesday 21 Oct 2014 (Local Time) from KHRO Reporting Station
Haze Haze  
Wind Chill: 55°   Ceiling: Unl
Heat Index: 55°   Visibility: 3mi
Dew Point: 55°   Wind: 5mph
Humidity: 100%   Direction: 320°NW
Pressure: 30.09"   Gusts: NA
Location:  36.16°N, 92.91°W
Report Text: KHRO 210726Z AUTO 32004KT 3SM BR CLR 13/13 A3009 RMK AO2 T01280128
Loading
Personal Weather Stations






























Interactive Weather Map
Tropical Storm Tracking
New forecast layout! Learn more

10-Day Weather Forecast

Advertisements
Track Severe Weather on mobile